sensor_id;sensor_type;location;lat;lon;timestamp;pressure;altitude;pressure_sealevel;temperature;humidity
3464;BME280;3551;41.578;24.706;2023-02-17T00:36:18;92007.72;;;0.06;87.17
3464;BME280;3551;41.578;24.706;2023-02-17T00:42:31;91995.94;;;-0.05;87.94
3464;BME280;3551;41.578;24.706;2023-02-17T00:45:22;91997.50;;;-0.13;87.30
3464;BME280;3551;41.578;24.706;2023-02-17T00:48:11;91993.75;;;-0.12;88.10
3464;BME280;3551;41.578;24.706;2023-02-17T02:13:47;91931.56;;;-0.42;87.18
3464;BME280;3551;41.578;24.706;2023-02-17T02:17:03;91925.03;;;-0.62;87.60
3464;BME280;3551;41.578;24.706;2023-02-17T02:23:52;91930.56;;;-0.63;86.63
3464;BME280;3551;41.578;24.706;2023-02-17T02:46:54;91938.13;;;-0.70;86.20
3464;BME280;3551;41.578;24.706;2023-02-17T02:57:27;91927.16;;;-0.64;84.90
3464;BME280;3551;41.578;24.706;2023-02-17T03:00:48;91932.22;;;-0.76;85.43
3464;BME280;3551;41.578;24.706;2023-02-17T03:04:14;91928.69;;;-0.71;85.61
3464;BME280;3551;41.578;24.706;2023-02-17T03:18:32;91935.94;;;-1.07;85.70
3464;BME280;3551;41.578;24.706;2023-02-17T04:11:01;91932.47;;;-0.94;83.87
3464;BME280;3551;41.578;24.706;2023-02-17T04:14:33;91929.16;;;-1.08;84.26
3464;BME280;3551;41.578;24.706;2023-02-17T04:17:31;91931.91;;;-1.14;84.14
3464;BME280;3551;41.578;24.706;2023-02-17T04:20:47;91928.25;;;-1.04;84.58
3464;BME280;3551;41.578;24.706;2023-02-17T04:24:06;91927.56;;;-1.18;85.05
3464;BME280;3551;41.578;24.706;2023-02-17T04:59:01;91933.66;;;-1.09;84.14
3464;BME280;3551;41.578;24.706;2023-02-17T05:02:16;91930.88;;;-1.04;83.73
3464;BME280;3551;41.578;24.706;2023-02-17T05:05:24;91929.03;;;-1.03;83.86
3464;BME280;3551;41.578;24.706;2023-02-17T05:08:21;91932.28;;;-0.98;83.54
3464;BME280;3551;41.578;24.706;2023-02-17T05:11:51;91937.91;;;-0.91;83.21
3464;BME280;3551;41.578;24.706;2023-02-17T05:35:07;91936.84;;;-0.81;82.36
3464;BME280;3551;41.578;24.706;2023-02-17T07:20:17;91938.91;;;3.22;73.67
3464;BME280;3551;41.578;24.706;2023-02-17T07:23:40;91933.44;;;3.07;68.76
3464;BME280;3551;41.578;24.706;2023-02-17T07:34:43;91945.00;;;3.71;68.71
3464;BME280;3551;41.578;24.706;2023-02-17T08:03:23;91943.94;;;4.61;65.14
3464;BME280;3551;41.578;24.706;2023-02-17T08:06:36;91940.13;;;4.74;64.42
3464;BME280;3551;41.578;24.706;2023-02-17T08:09:50;91941.19;;;4.85;63.28
3464;BME280;3551;41.578;24.706;2023-02-17T08:12:55;91935.63;;;5.02;62.25
3464;BME280;3551;41.578;24.706;2023-02-17T08:15:52;91934.13;;;5.17;62.26
3464;BME280;3551;41.578;24.706;2023-02-17T09:49:14;91891.50;;;9.58;38.69
3464;BME280;3551;41.578;24.706;2023-02-17T09:52:12;91886.94;;;9.58;34.94
3464;BME280;3551;41.578;24.706;2023-02-17T13:16:13;91746.56;;;10.19;30.42
3464;BME280;3551;41.578;24.706;2023-02-17T13:18:41;91747.81;;;10.36;28.74
3464;BME280;3551;41.578;24.706;2023-02-17T13:21:15;91749.72;;;10.42;32.50
3464;BME280;3551;41.578;24.706;2023-02-17T13:23:43;91755.19;;;10.70;38.20
3464;BME280;3551;41.578;24.706;2023-02-17T13:26:22;91753.00;;;10.97;39.00
3464;BME280;3551;41.578;24.706;2023-02-17T13:28:49;91745.41;;;11.38;38.88
3464;BME280;3551;41.578;24.706;2023-02-17T13:31:19;91751.50;;;11.42;39.00
3464;BME280;3551;41.578;24.706;2023-02-17T13:33:48;91751.13;;;11.44;39.53
3464;BME280;3551;41.578;24.706;2023-02-17T13:36:17;91748.44;;;11.47;39.63
3464;BME280;3551;41.578;24.706;2023-02-17T13:38:52;91750.75;;;11.49;39.36
3464;BME280;3551;41.578;24.706;2023-02-17T13:41:21;91756.09;;;11.38;39.90
3464;BME280;3551;41.578;24.706;2023-02-17T13:43:48;91759.56;;;11.53;40.26
3464;BME280;3551;41.578;24.706;2023-02-17T13:46:15;91758.78;;;11.38;41.42
3464;BME280;3551;41.578;24.706;2023-02-17T13:48:59;91756.81;;;11.21;42.31
3464;BME280;3551;41.578;24.706;2023-02-17T13:51:28;91762.19;;;11.14;42.79
3464;BME280;3551;41.578;24.706;2023-02-17T13:53:55;91757.59;;;11.18;43.14
3464;BME280;3551;41.578;24.706;2023-02-17T13:56:23;91761.81;;;11.37;42.68
3464;BME280;3551;41.578;24.706;2023-02-17T13:58:50;91759.91;;;11.37;42.48
3464;BME280;3551;41.578;24.706;2023-02-17T14:01:18;91759.53;;;11.39;42.98
3464;BME280;3551;41.578;24.706;2023-02-17T14:03:47;91763.72;;;11.36;42.95
3464;BME280;3551;41.578;24.706;2023-02-17T14:06:21;91764.13;;;11.49;43.03
3464;BME280;3551;41.578;24.706;2023-02-17T14:08:48;91769.88;;;11.40;42.94
3464;BME280;3551;41.578;24.706;2023-02-17T14:11:15;91766.03;;;11.34;43.27
3464;BME280;3551;41.578;24.706;2023-02-17T14:13:44;91771.78;;;11.43;43.34
3464;BME280;3551;41.578;24.706;2023-02-17T14:16:24;91764.13;;;11.45;43.48
3464;BME280;3551;41.578;24.706;2023-02-17T14:18:59;91767.19;;;11.37;43.61
3464;BME280;3551;41.578;24.706;2023-02-17T14:21:27;91775.19;;;11.19;44.71
3464;BME280;3551;41.578;24.706;2023-02-17T14:23:55;91775.16;;;11.05;45.86
3464;BME280;3551;41.578;24.706;2023-02-17T14:26:26;91775.50;;;10.89;46.19
3464;BME280;3551;41.578;24.706;2023-02-17T14:28:53;91773.59;;;10.83;46.61
3464;BME280;3551;41.578;24.706;2023-02-17T14:31:21;91772.44;;;10.84;46.42
3464;BME280;3551;41.578;24.706;2023-02-17T14:33:52;91771.66;;;10.76;46.63
3464;BME280;3551;41.578;24.706;2023-02-17T14:36:24;91780.03;;;10.74;46.84
3464;BME280;3551;41.578;24.706;2023-02-17T14:38:54;91781.59;;;10.79;47.16
3464;BME280;3551;41.578;24.706;2023-02-17T14:41:21;91781.56;;;10.65;47.13
3464;BME280;3551;41.578;24.706;2023-02-17T14:43:47;91774.63;;;10.57;47.44
3464;BME280;3551;41.578;24.706;2023-02-17T14:46:14;91780.69;;;10.43;48.16
3464;BME280;3551;41.578;24.706;2023-02-17T14:48:43;91782.47;;;10.22;49.30
3464;BME280;3551;41.578;24.706;2023-02-17T14:51:11;91784.41;;;10.25;49.38
3464;BME280;3551;41.578;24.706;2023-02-17T14:53:38;91800.47;;;10.28;49.24
3464;BME280;3551;41.578;24.706;2023-02-17T14:56:07;91797.81;;;10.32;49.45
3464;BME280;3551;41.578;24.706;2023-02-17T14:58:35;91795.84;;;10.18;49.50
3464;BME280;3551;41.578;24.706;2023-02-17T15:01:02;91800.75;;;10.12;49.68
3464;BME280;3551;41.578;24.706;2023-02-17T15:03:30;91803.72;;;10.00;49.87
3464;BME280;3551;41.578;24.706;2023-02-17T15:05:58;91807.38;;;9.82;50.50
3464;BME280;3551;41.578;24.706;2023-02-17T15:08:28;91812.16;;;9.58;51.55
3464;BME280;3551;41.578;24.706;2023-02-17T15:10:55;91811.41;;;9.58;51.85
3464;BME280;3551;41.578;24.706;2023-02-17T15:13:23;91811.47;;;9.65;51.55
3464;BME280;3551;41.578;24.706;2023-02-17T15:15:50;91818.13;;;9.41;52.94
3464;BME280;3551;41.578;24.706;2023-02-17T15:18:18;91815.84;;;9.43;52.89
3464;BME280;3551;41.578;24.706;2023-02-17T15:20:45;91816.47;;;9.26;53.50
3464;BME280;3551;41.578;24.706;2023-02-17T15:23:15;91817.16;;;9.20;54.29
3464;BME280;3551;41.578;24.706;2023-02-17T15:25:42;91829.75;;;9.19;54.24
3464;BME280;3551;41.578;24.706;2023-02-17T15:28:11;91828.91;;;9.12;54.96
3464;BME280;3551;41.578;24.706;2023-02-17T15:30:42;91833.34;;;9.00;55.30
3464;BME280;3551;41.578;24.706;2023-02-17T15:33:16;91834.28;;;8.82;55.36
3464;BME280;3551;41.578;24.706;2023-02-17T15:35:43;91831.19;;;8.76;55.65
3464;BME280;3551;41.578;24.706;2023-02-17T15:38:14;91840.78;;;8.51;56.47
3464;BME280;3551;41.578;24.706;2023-02-17T15:40:49;91835.47;;;8.51;56.92
3464;BME280;3551;41.578;24.706;2023-02-17T15:43:19;91845.44;;;8.28;57.77
3464;BME280;3551;41.578;24.706;2023-02-17T15:45:48;91852.06;;;8.15;58.10
3464;BME280;3551;41.578;24.706;2023-02-17T15:48:18;91856.78;;;8.25;58.19
3464;BME280;3551;41.578;24.706;2023-02-17T15:50:47;91856.28;;;8.16;58.32
3464;BME280;3551;41.578;24.706;2023-02-17T15:53:13;91848.41;;;7.97;58.81
3464;BME280;3551;41.578;24.706;2023-02-17T15:55:40;91865.84;;;7.94;59.45
3464;BME280;3551;41.578;24.706;2023-02-17T15:58:08;91861.91;;;7.84;59.63
3464;BME280;3551;41.578;24.706;2023-02-17T16:00:38;91872.13;;;7.82;59.65
3464;BME280;3551;41.578;24.706;2023-02-17T16:03:09;91874.78;;;7.82;59.73
3464;BME280;3551;41.578;24.706;2023-02-17T16:05:40;91875.97;;;7.62;60.56
3464;BME280;3551;41.578;24.706;2023-02-17T16:08:07;91875.69;;;7.45;61.76
3464;BME280;3551;41.578;24.706;2023-02-17T16:10:33;91884.28;;;7.57;61.66
3464;BME280;3551;41.578;24.706;2023-02-17T16:13:01;91886.09;;;7.53;61.06
3464;BME280;3551;41.578;24.706;2023-02-17T16:15:29;91878.66;;;7.40;62.36
3464;BME280;3551;41.578;24.706;2023-02-17T16:17:56;91887.00;;;7.38;62.02
3464;BME280;3551;41.578;24.706;2023-02-17T16:20:25;91890.84;;;7.41;62.06
3464;BME280;3551;41.578;24.706;2023-02-17T16:22:53;91891.09;;;7.13;62.97
3464;BME280;3551;41.578;24.706;2023-02-17T16:25:52;91908.53;;;7.10;63.34
3464;BME280;3551;41.578;24.706;2023-02-17T16:28:27;91907.91;;;7.17;62.90
3464;BME280;3551;41.578;24.706;2023-02-17T16:34:14;91912.72;;;6.92;63.65
3464;BME280;3551;41.578;24.706;2023-02-17T16:43:12;91920.56;;;6.66;64.78
3464;BME280;3551;41.578;24.706;2023-02-17T16:56:00;91929.19;;;6.25;67.25
3464;BME280;3551;41.578;24.706;2023-02-17T17:37:38;91954.00;;;5.69;69.18
3464;BME280;3551;41.578;24.706;2023-02-17T17:40:34;91959.84;;;5.59;69.60
3464;BME280;3551;41.578;24.706;2023-02-17T17:43:36;91963.06;;;5.53;69.84
3464;BME280;3551;41.578;24.706;2023-02-17T17:46:30;91960.47;;;5.41;70.10
3464;BME280;3551;41.578;24.706;2023-02-17T17:49:16;91951.44;;;5.42;70.16
3464;BME280;3551;41.578;24.706;2023-02-17T17:52:04;91956.97;;;5.37;70.26
3464;BME280;3551;41.578;24.706;2023-02-17T20:24:40;91975.53;;;3.12;78.63
3464;BME280;3551;41.578;24.706;2023-02-17T20:27:21;91985.56;;;3.18;78.02
3464;BME280;3551;41.578;24.706;2023-02-17T20:30:38;91974.25;;;3.30;77.60
3464;BME280;3551;41.578;24.706;2023-02-17T22:03:42;91965.75;;;2.17;80.48
3464;BME280;3551;41.578;24.706;2023-02-17T22:07:08;91956.19;;;2.04;81.33
3464;BME280;3551;41.578;24.706;2023-02-17T22:10:40;91952.41;;;2.14;81.37
3464;BME280;3551;41.578;24.706;2023-02-17T22:17:20;91958.50;;;2.06;81.21
3464;BME280;3551;41.578;24.706;2023-02-17T23:56:54;91932.41;;;1.63;81.23
